Time;durP1;ratioP1;P1;durP2;ratioP2;P2;SDS_P1;SDS_P2;PMS_P1;PMS_P2;Temp;Humidity;BMP_temperature;BMP_pressure;BME280_temperature;BME280_humidity;BME280_pressure;Samples;Min_cycle;Max_cycle;Signal;HPM_P1;HPM_P2
2021/03/19 00:01:47;;;;;;;10.55;6.80;;;6.40;99.90;;;;;;4967403;28;20033;-53
2021/03/19 00:04:12;;;;;;;11.48;6.47;;;6.40;99.90;;;;;;4999553;28;20099;-51
2021/03/19 00:06:38;;;;;;;10.18;6.20;;;6.40;99.90;;;;;;5034263;28;20403;-52
2021/03/19 00:09:07;;;;;;;9.95;5.88;;;6.30;99.90;;;;;;5034553;28;20034;-54
2021/03/19 00:11:34;;;;;;;10.77;6.03;;;6.20;99.90;;;;;;5034408;28;20064;-52
2021/03/19 00:14:00;;;;;;;9.38;5.65;;;5.90;99.90;;;;;;5034641;28;20033;-53
2021/03/19 00:16:26;;;;;;;9.15;5.55;;;5.70;99.90;;;;;;5034089;28;20029;-52
2021/03/19 00:18:52;;;;;;;11.95;6.65;;;5.80;99.90;;;;;;5046678;28;20094;-51
2021/03/19 00:21:18;;;;;;;11.77;7.10;;;5.90;99.90;;;;;;5054189;28;20521;-52
2021/03/19 00:23:43;;;;;;;14.10;7.32;;;6.00;99.90;;;;;;5054089;28;20039;-53
2021/03/19 00:26:09;;;;;;;11.85;6.97;;;6.00;99.90;;;;;;5054172;28;20115;-50
2021/03/19 00:28:35;;;;;;;12.48;6.65;;;6.00;99.90;;;;;;5053808;28;20064;-50
2021/03/19 00:31:01;;;;;;;13.30;7.05;;;6.00;99.90;;;;;;5035598;28;20363;-50
2021/03/19 00:33:27;;;;;;;11.95;7.18;;;6.00;99.90;;;;;;5054023;28;20028;-52
2021/03/19 00:35:53;;;;;;;14.05;7.63;;;5.90;99.90;;;;;;5018853;28;20371;-53
2021/03/19 00:38:19;;;;;;;12.13;7.25;;;5.70;99.90;;;;;;5053897;28;20117;-51
2021/03/19 00:40:45;;;;;;;12.82;6.75;;;5.60;99.90;;;;;;5018871;28;20029;-52
2021/03/19 00:43:15;;;;;;;13.48;7.45;;;5.60;99.90;;;;;;5053742;28;20043;-51
2021/03/19 00:45:41;;;;;;;13.10;6.63;;;5.70;99.90;;;;;;5054085;28;20029;-51
2021/03/19 00:48:07;;;;;;;15.00;7.93;;;5.80;99.90;;;;;;5051501;28;20465;-54
2021/03/19 00:50:38;;;;;;;11.65;7.70;;;5.90;99.90;;;;;;5041520;28;20026;-53
2021/03/19 00:53:05;;;;;;;13.15;8.30;;;6.00;99.90;;;;;;5012403;28;20033;-52
2021/03/19 00:55:32;;;;;;;16.77;7.93;;;6.00;99.90;;;;;;5033501;28;20028;-55
2021/03/19 00:57:58;;;;;;;14.27;7.85;;;6.00;99.90;;;;;;4998504;28;20091;-53
2021/03/19 01:00:25;;;;;;;10.90;7.20;;;6.00;99.90;;;;;;4982938;28;20040;-54
2021/03/19 01:02:51;;;;;;;13.07;7.40;;;5.90;99.90;;;;;;5033561;28;20029;-54
2021/03/19 01:05:39;;;;;;;12.00;7.45;;;5.80;99.90;;;;;;5033443;28;20041;-53
2021/03/19 01:08:06;;;;;;;13.25;7.28;;;5.80;99.90;;;;;;5033221;28;20033;-53
2021/03/19 01:10:39;;;;;;;13.73;8.13;;;5.90;99.90;;;;;;5033587;28;20028;-56
2021/03/19 01:13:05;;;;;;;14.00;7.97;;;5.90;99.90;;;;;;5052139;28;20459;-53
2021/03/19 01:15:32;;;;;;;16.33;8.13;;;5.90;99.90;;;;;;5053489;28;20423;-51
2021/03/19 01:17:58;;;;;;;12.40;8.07;;;5.90;99.90;;;;;;5053242;28;20091;-50
2021/03/19 01:20:26;;;;;;;16.48;8.50;;;5.90;99.90;;;;;;5053108;28;20437;-52
2021/03/19 01:22:53;;;;;;;16.77;8.82;;;5.90;99.90;;;;;;5011579;28;20132;-53
2021/03/19 01:25:21;;;;;;;17.40;8.32;;;5.90;99.90;;;;;;5014732;28;20044;-51
2021/03/19 01:27:46;;;;;;;17.40;8.07;;;5.90;99.90;;;;;;5029921;28;20496;-51
2021/03/19 01:30:16;;;;;;;15.00;8.05;;;5.90;99.90;;;;;;5014944;28;20162;-51
2021/03/19 01:32:43;;;;;;;16.98;8.73;;;5.90;99.90;;;;;;4971690;28;20050;-54
2021/03/19 01:35:09;;;;;;;14.77;8.65;;;5.90;99.90;;;;;;4972313;28;20034;-54
2021/03/19 01:37:35;;;;;;;15.40;9.30;;;6.00;99.90;;;;;;4924329;28;20046;-52
2021/03/19 01:40:01;;;;;;;18.77;9.05;;;5.90;99.90;;;;;;4972266;28;20433;-52
2021/03/19 01:42:27;;;;;;;16.75;8.23;;;6.00;99.90;;;;;;4971947;28;20062;-54
2021/03/19 01:45:08;;;;;;;17.80;9.52;;;6.00;99.90;;;;;;4972272;28;20035;-55
2021/03/19 01:48:11;;;;;;;18.42;9.25;;;6.10;99.90;;;;;;4972135;28;20030;-55
2021/03/19 01:50:54;;;;;;;;;;;6.10;99.90;;;;;;4972448;28;20049;-54
2021/03/19 01:53:57;;;;;;;15.18;8.75;;;6.10;99.90;;;;;;4972112;28;19910;-50
2021/03/19 01:56:41;;;;;;;;;;;6.10;99.90;;;;;;4940309;28;20035;-53
2021/03/19 01:59:44;;;;;;;18.95;9.68;;;6.10;99.90;;;;;;4972074;28;19910;-53
2021/03/19 02:02:28;;;;;;;;;;;6.10;99.90;;;;;;4972522;28;20030;-51
2021/03/19 02:05:31;;;;;;;20.27;10.95;;;5.90;99.90;;;;;;5032529;28;19909;-53
2021/03/19 02:08:34;;;;;;;21.55;10.70;;;6.00;99.90;;;;;;5036558;28;20025;-53
2021/03/19 02:11:37;;;;;;;18.80;10.45;;;6.00;99.90;;;;;;5036644;28;20021;-51
2021/03/19 02:14:40;;;;;;;19.50;10.27;;;5.90;99.90;;;;;;5036557;28;20431;-50
2021/03/19 02:17:24;;;;;;;;;;;5.90;99.90;;;;;;5036724;28;20042;-52
2021/03/19 02:20:27;;;;;;;18.45;10.07;;;5.90;99.90;;;;;;5042086;28;19909;-53
2021/03/19 02:23:30;;;;;;;20.58;11.32;;;5.90;99.90;;;;;;5036289;28;20036;-51
2021/03/19 02:26:33;;;;;;;19.42;9.93;;;5.90;99.90;;;;;;5001384;28;20431;-54
2021/03/19 02:29:36;;;;;;;23.00;11.05;;;5.90;99.90;;;;;;5036282;28;20372;-51
2021/03/19 02:32:11;;;;;;;18.38;11.20;;;5.80;99.90;;;;;;5036376;28;20033;-50
2021/03/19 02:34:55;;;;;;;22.52;11.07;;;5.90;99.90;;;;;;5036120;28;20021;-55
2021/03/19 02:37:25;;;;;;;17.55;10.60;;;5.80;99.90;;;;;;5036336;28;20025;-52
2021/03/19 02:39:51;;;;;;;21.55;11.52;;;5.90;99.90;;;;;;5036188;28;20060;-55
2021/03/19 02:42:20;;;;;;;19.55;11.55;;;6.00;99.90;;;;;;5035966;28;20072;-50
2021/03/19 02:44:46;;;;;;;24.63;12.98;;;6.00;99.90;;;;;;5018973;28;20029;-51
2021/03/19 02:47:13;;;;;;;18.52;10.85;;;6.00;99.90;;;;;;5036290;28;20045;-52
2021/03/19 02:49:39;;;;;;;19.73;11.55;;;6.00;99.90;;;;;;5036039;28;20025;-53
2021/03/19 02:52:05;;;;;;;19.95;11.00;;;6.00;99.90;;;;;;5035940;28;20037;-51
2021/03/19 02:54:31;;;;;;;22.67;12.63;;;6.00;99.90;;;;;;5048289;28;20021;-52
2021/03/19 02:56:57;;;;;;;21.80;12.30;;;5.80;99.90;;;;;;5055537;28;20035;-53
2021/03/19 02:59:23;;;;;;;19.15;11.50;;;5.30;99.90;;;;;;5055791;28;20376;-54
2021/03/19 03:01:49;;;;;;;20.10;10.70;;;4.60;99.90;;;;;;5055854;28;20083;-51
2021/03/19 03:04:16;;;;;;;22.17;14.13;;;;;;;;;;5004361;28;20476;-53
2021/03/19 03:06:44;;;;;;;24.98;13.63;;;;;;;;;;5055809;28;20107;-54
2021/03/19 03:09:11;;;;;;;20.35;10.98;;;;;;;;;;5055526;28;20037;-52
2021/03/19 03:11:37;;;;;;;20.88;11.02;;;;;;;;;;5013435;28;20042;-51
2021/03/19 03:14:13;;;;;;;18.85;10.20;;;4.40;99.90;;;;;;5013385;28;20037;-51
2021/03/19 03:16:40;;;;;;;19.85;10.60;;;4.60;99.90;;;;;;5013076;28;20034;-55
2021/03/19 03:19:08;;;;;;;15.75;8.88;;;5.00;99.90;;;;;;5007960;28;20038;-54
2021/03/19 03:21:34;;;;;;;20.42;10.77;;;5.20;99.90;;;;;;4969863;28;20038;-54
2021/03/19 03:24:01;;;;;;;19.65;9.73;;;5.50;99.90;;;;;;4944694;28;20039;-51
2021/03/19 03:26:28;;;;;;;17.60;9.45;;;5.50;99.90;;;;;;4927115;29;20115;-51
2021/03/19 03:28:53;;;;;;;17.95;10.02;;;5.70;99.90;;;;;;4955154;29;20399;-54
2021/03/19 03:31:19;;;;;;;19.70;11.13;;;5.80;99.90;;;;;;4922874;29;20035;-53
2021/03/19 03:33:46;;;;;;;19.70;10.75;;;5.80;99.90;;;;;;4954573;29;20376;-52
2021/03/19 03:36:12;;;;;;;20.17;10.90;;;5.60;99.90;;;;;;4954715;29;20126;-53
2021/03/19 03:38:38;;;;;;;19.85;11.70;;;5.50;99.90;;;;;;4955033;29;20046;-54
2021/03/19 03:41:16;;;;;;;18.77;11.18;;;5.20;99.90;;;;;;4954628;29;20058;-51
2021/03/19 03:43:42;;;;;;;23.27;11.73;;;5.30;99.90;;;;;;4973535;28;20434;-54
2021/03/19 03:46:13;;;;;;;16.00;9.70;;;5.30;99.90;;;;;;4974274;28;20046;-53
2021/03/19 03:48:39;;;;;;;17.90;9.77;;;5.50;99.90;;;;;;4973853;28;20601;-55
2021/03/19 03:51:07;;;;;;;17.67;9.85;;;5.60;99.90;;;;;;4974076;28;20122;-50
2021/03/19 03:53:34;;;;;;;19.58;9.73;;;5.80;99.90;;;;;;5029144;28;20038;-50
2021/03/19 03:56:01;;;;;;;15.90;8.75;;;5.90;99.90;;;;;;5034947;28;20057;-53
2021/03/19 03:58:27;;;;;;;17.25;9.15;;;6.00;99.90;;;;;;5034895;28;20128;-53
2021/03/19 04:00:52;;;;;;;17.25;9.63;;;6.00;99.90;;;;;;5034788;28;20026;-50
2021/03/19 04:03:18;;;;;;;18.95;10.07;;;6.00;99.90;;;;;;4999676;28;20104;-50
2021/03/19 04:05:47;;;;;;;18.55;9.70;;;6.10;99.90;;;;;;5016957;28;20053;-51
2021/03/19 04:08:17;;;;;;;16.15;9.32;;;6.10;99.90;;;;;;5034649;28;20037;-53
2021/03/19 04:10:44;;;;;;;16.05;8.57;;;6.10;99.90;;;;;;5034863;28;20033;-54
2021/03/19 04:13:12;;;;;;;15.38;8.40;;;6.10;99.90;;;;;;5034550;28;20108;-53
2021/03/19 04:15:39;;;;;;;12.80;7.53;;;6.10;99.90;;;;;;5034417;28;20029;-52
2021/03/19 04:18:09;;;;;;;14.95;8.48;;;6.20;99.90;;;;;;5034234;28;20489;-51
2021/03/19 04:20:36;;;;;;;15.73;8.65;;;6.20;99.90;;;;;;5039389;28;20042;-51
2021/03/19 04:23:03;;;;;;;16.95;8.73;;;6.20;99.90;;;;;;5019255;28;20120;-55
2021/03/19 04:25:29;;;;;;;12.63;6.97;;;6.00;99.90;;;;;;5016165;28;20133;-52
2021/03/19 04:27:58;;;;;;;12.40;7.18;;;6.00;99.90;;;;;;5033872;28;20116;-54
2021/03/19 04:30:29;;;;;;;12.65;6.97;;;6.10;99.90;;;;;;5034031;28;20025;-50
2021/03/19 04:32:56;;;;;;;12.00;7.45;;;6.20;99.90;;;;;;5045347;28;20025;-51
2021/03/19 04:35:23;;;;;;;11.85;7.47;;;6.10;99.90;;;;;;5034499;28;20029;-53
2021/03/19 04:37:51;;;;;;;10.88;6.22;;;6.10;99.90;;;;;;5025665;28;20041;-52
2021/03/19 04:40:18;;;;;;;12.30;6.80;;;6.00;99.90;;;;;;5034070;28;20087;-50
2021/03/19 04:42:44;;;;;;;9.98;6.10;;;6.00;99.90;;;;;;5034159;28;20120;-52
2021/03/19 04:45:12;;;;;;;11.73;6.60;;;6.10;99.90;;;;;;4999297;28;20095;-52
2021/03/19 04:47:38;;;;;;;10.82;7.00;;;6.00;99.90;;;;;;5033761;28;20465;-53
2021/03/19 04:50:07;;;;;;;12.00;6.72;;;6.10;99.90;;;;;;5034051;28;20025;-52
2021/03/19 04:52:33;;;;;;;11.68;6.53;;;6.20;99.90;;;;;;5033643;28;20025;-54
2021/03/19 04:55:01;;;;;;;13.35;7.15;;;6.10;99.90;;;;;;5033769;28;20025;-52
2021/03/19 04:57:27;;;;;;;12.77;7.13;;;6.00;99.90;;;;;;5033729;28;20522;-54
2021/03/19 04:59:53;;;;;;;14.88;8.20;;;6.00;99.90;;;;;;5033848;28;20026;-51
2021/03/19 05:02:30;;;;;;;16.85;8.00;;;5.90;99.90;;;;;;5044783;28;20031;-53
2021/03/19 05:04:56;;;;;;;13.70;8.75;;;5.90;99.90;;;;;;5018686;28;20426;-53
2021/03/19 05:07:22;;;;;;;15.48;8.70;;;6.00;99.90;;;;;;5053349;28;20057;-54
2021/03/19 05:09:47;;;;;;;16.17;9.02;;;6.10;99.90;;;;;;5053191;28;20103;-54
2021/03/19 05:12:13;;;;;;;16.98;8.60;;;6.20;99.90;;;;;;5053469;28;20372;-51
2021/03/19 05:14:39;;;;;;;14.85;8.55;;;6.20;99.90;;;;;;5053418;28;20025;-54
2021/03/19 05:17:05;;;;;;;16.02;8.20;;;6.10;99.90;;;;;;5017924;28;20041;-50
2021/03/19 05:19:30;;;;;;;14.45;8.32;;;6.10;99.90;;;;;;5048317;28;20482;-52
2021/03/19 05:21:56;;;;;;;16.73;9.15;;;6.10;99.90;;;;;;5041191;28;20138;-50
2021/03/19 05:24:22;;;;;;;14.60;8.68;;;6.20;99.90;;;;;;5033158;28;20511;-53
2021/03/19 05:26:48;;;;;;;13.82;8.43;;;6.30;99.90;;;;;;4998416;28;20038;-52
2021/03/19 05:29:13;;;;;;;17.30;8.68;;;6.20;99.90;;;;;;5033423;28;20103;-50
2021/03/19 05:31:40;;;;;;;15.13;8.70;;;6.20;99.90;;;;;;5036209;28;20037;-54
2021/03/19 05:34:06;;;;;;;17.05;8.30;;;6.20;99.90;;;;;;5043670;28;20026;-51
2021/03/19 05:36:33;;;;;;;13.98;8.63;;;6.20;99.90;;;;;;5039445;28;20032;-54
2021/03/19 05:39:00;;;;;;;15.57;9.02;;;6.20;99.90;;;;;;5009480;28;20132;-52
2021/03/19 05:41:28;;;;;;;15.48;8.75;;;6.20;99.90;;;;;;5045233;28;20022;-51
2021/03/19 05:44:07;;;;;;;14.90;8.32;;;6.30;99.90;;;;;;5037130;28;20079;-50
2021/03/19 05:46:59;;;;;;;13.63;8.55;;;6.30;99.90;;;;;;5044904;28;20039;-53
2021/03/19 05:49:28;;;;;;;13.95;9.00;;;6.30;99.90;;;;;;5051227;28;20635;-50
2021/03/19 05:51:58;;;;;;;15.07;8.88;;;6.30;99.90;;;;;;4976899;28;20045;-50
2021/03/19 05:54:45;;;;;;;17.88;10.10;;;6.40;99.90;;;;;;4975954;28;20046;-54
2021/03/19 05:57:30;;;;;;;17.10;9.77;;;6.50;99.90;;;;;;4976046;28;20486;-53
2021/03/19 05:59:59;;;;;;;20.73;13.52;;;6.50;99.90;;;;;;4980678;28;20046;-54
2021/03/19 06:02:26;;;;;;;18.42;9.73;;;6.60;99.90;;;;;;4980960;28;20063;-53
2021/03/19 06:05:02;;;;;;;17.27;9.57;;;6.70;99.90;;;;;;4944154;28;20097;-52
2021/03/19 06:07:52;;;;;;;17.38;10.95;;;6.80;99.90;;;;;;4977601;28;20050;-52
2021/03/19 06:10:28;;;;;;;18.45;11.75;;;6.80;99.90;;;;;;4975559;28;20106;-51
2021/03/19 06:13:13;;;;;;;16.55;9.77;;;;;;;;;;4973028;28;20039;-48
2021/03/19 06:15:46;;;;;;;14.88;8.18;;;;;;;;;;4981335;28;20118;-55
2021/03/19 06:18:23;;;;;;;14.40;9.18;;;;;;;;;;4980215;28;20049;-50
2021/03/19 06:20:54;;;;;;;15.63;8.77;;;7.10;99.90;;;;;;4994754;28;20041;-53
2021/03/19 06:23:22;;;;;;;14.40;8.93;;;7.20;99.90;;;;;;5027970;28;20038;-52
2021/03/19 06:26:00;;;;;;;17.33;8.55;;;7.20;99.90;;;;;;5036400;28;20036;-52
2021/03/19 06:29:03;;;;;;;15.52;8.90;;;6.90;99.90;;;;;;5036383;28;20041;-49
2021/03/19 06:31:31;;;;;;;13.05;7.82;;;6.70;99.90;;;;;;5039442;28;20013;-52
2021/03/19 06:34:18;;;;;;;15.52;8.70;;;6.60;99.90;;;;;;5055726;28;20150;-51
2021/03/19 06:37:04;;;;;;;15.30;8.48;;;6.60;99.90;;;;;;5051903;28;20054;-51
2021/03/19 06:39:51;;;;;;;14.35;7.50;;;6.70;99.90;;;;;;5048318;28;20480;-50
2021/03/19 06:42:19;;;;;;;15.68;8.75;;;6.50;99.90;;;;;;4993097;28;20061;-53
2021/03/19 06:45:15;;;;;;;16.65;9.35;;;6.60;99.90;;;;;;4990753;28;20038;-51
2021/03/19 06:47:42;;;;;;;16.60;8.68;;;6.70;99.90;;;;;;4974941;28;20090;-50
2021/03/19 06:50:13;;;;;;;16.92;8.93;;;6.80;99.90;;;;;;4972276;28;20030;-51
2021/03/19 06:52:39;;;;;;;18.45;9.65;;;6.70;99.90;;;;;;4971269;28;20086;-49
2021/03/19 06:55:06;;;;;;;17.83;9.52;;;6.70;99.90;;;;;;4926587;28;20429;-50
2021/03/19 06:57:47;;;;;;;16.95;8.93;;;6.50;99.90;;;;;;4974910;28;20031;-52
2021/03/19 07:00:13;;;;;;;16.95;7.80;;;6.20;99.90;;;;;;4958301;28;20163;-52
2021/03/19 07:02:51;;;;;;;14.00;7.55;;;6.20;99.90;;;;;;4958385;28;20046;-51
2021/03/19 07:05:28;;;;;;;12.23;7.03;;;6.30;99.90;;;;;;4974874;28;20462;-51
2021/03/19 07:08:35;;;;;;;12.50;7.05;;;6.40;99.90;;;;;;4974368;28;20130;-51
2021/03/19 07:11:13;;;;;;;12.98;7.65;;;6.10;99.90;;;;;;4916717;29;20043;-50
2021/03/19 07:14:00;;;;;;;10.02;6.50;;;6.50;99.90;;;;;;4962832;28;20102;-50
2021/03/19 07:16:44;;;;;;;12.50;6.80;;;6.80;99.90;;;;;;4971663;28;20150;-52
2021/03/19 07:19:44;;;;;;;10.82;6.32;;;6.80;99.90;;;;;;4974077;28;20042;-51
2021/03/19 07:22:46;;;;;;;13.80;7.35;;;6.80;99.90;;;;;;4970971;28;20043;-50
2021/03/19 07:25:20;;;;;;;10.88;6.30;;;7.00;99.90;;;;;;4972070;28;20047;-51
2021/03/19 07:28:18;;;;;;;12.25;6.22;;;7.10;99.90;;;;;;4971599;28;20043;-50
2021/03/19 07:31:08;;;;;;;10.38;5.68;;;7.10;99.90;;;;;;4972410;28;20045;-53
2021/03/19 07:34:04;;;;;;;9.27;5.63;;;7.00;99.90;;;;;;4940841;28;20038;-52
2021/03/19 07:36:37;;;;;;;12.18;6.80;;;;;;;;;;4972458;28;20031;-50
2021/03/19 07:39:39;;;;;;;10.85;6.22;;;7.90;99.90;;;;;;4973868;28;20030;-50
2021/03/19 07:42:24;;;;;;;10.85;6.63;;;;;;;;;;4973298;28;20375;-52
2021/03/19 07:45:05;;;;;;;13.02;7.85;;;;;;;;;;4971429;28;20043;-52
2021/03/19 07:47:56;;;;;;;20.92;11.25;;;8.40;99.90;;;;;;4985385;28;20042;-52
2021/03/19 07:50:28;;;;;;;13.25;8.32;;;;;;;;;;5032832;28;20040;-51
2021/03/19 07:52:54;;;;;;;;;;;;;;;;;;5035108;28;20051;-53
2021/03/19 07:56:11;;;;;;;7.90;5.40;;;9.30;99.90;;;;;;5035021;28;19913;-49
2021/03/19 07:59:00;;;;;;;10.02;6.80;;;;;;;;;;4973976;28;20037;-52
2021/03/19 08:01:44;;;;;;;11.35;6.68;;;;;;;;;;4973705;28;20370;-53
2021/03/19 08:04:25;;;;;;;10.40;6.45;;;;;;;;;;4957420;28;20033;-52
2021/03/19 08:06:57;;;;;;;9.82;6.60;;;9.80;99.90;;;;;;4954319;29;20031;-50
2021/03/19 08:09:42;;;;;;;10.05;6.85;;;10.00;99.90;;;;;;4954140;29;20039;-50
2021/03/19 08:12:18;;;;;;;11.65;7.03;;;9.80;99.90;;;;;;4954108;29;20083;-51
2021/03/19 08:15:05;;;;;;;9.13;5.90;;;9.90;99.90;;;;;;4956844;28;20065;-53
2021/03/19 08:17:53;;;;;;;10.80;6.63;;;9.30;99.90;;;;;;4959826;28;20043;-50
2021/03/19 08:20:43;;;;;;;10.40;6.78;;;9.60;99.90;;;;;;4952746;29;20039;-49
2021/03/19 08:23:22;;;;;;;11.70;6.18;;;9.20;99.90;;;;;;4953079;29;20082;-53
2021/03/19 08:25:50;;;;;;;11.55;6.20;;;9.40;99.90;;;;;;4950464;29;20027;-51
2021/03/19 08:28:38;;;;;;;9.77;6.00;;;9.70;99.90;;;;;;4952801;29;20111;-50
2021/03/19 08:31:12;;;;;;;9.60;5.20;;;9.70;99.90;;;;;;4937853;29;20035;-54
2021/03/19 08:34:04;;;;;;;12.68;7.00;;;9.40;99.90;;;;;;4977876;28;20052;-48
2021/03/19 08:36:41;;;;;;;9.93;5.63;;;9.90;99.90;;;;;;5013911;28;20417;-53
2021/03/19 08:39:41;;;;;;;11.60;6.85;;;9.80;99.90;;;;;;4977211;28;20463;-53
2021/03/19 08:42:10;;;;;;;9.13;6.15;;;;;;;;;;5025393;28;20362;-51
2021/03/19 08:44:38;;;;;;;63.10;27.15;;;10.90;99.90;;;;;;5020697;28;20033;-57
2021/03/19 08:47:32;;;;;;;9.27;6.25;;;10.50;99.90;;;;;;5034079;28;20030;-54
2021/03/19 08:50:12;;;;;;;29.42;13.90;;;;;;;;;;5029221;28;20136;-59
2021/03/19 08:52:39;;;;;;;10.75;7.43;;;;;;;;;;4991853;28;20057;-60
2021/03/19 08:55:15;;;;;;;18.10;9.85;;;11.50;99.90;;;;;;4992447;28;20103;-52
2021/03/19 08:57:45;;;;;;;11.02;7.47;;;10.50;99.90;;;;;;4982631;28;20153;-52
2021/03/19 09:00:14;;;;;;;13.40;7.45;;;;;;;;;;4974817;28;20046;-49
2021/03/19 09:02:41;;;;;;;8.75;5.65;;;9.40;99.90;;;;;;4972811;28;20070;-51
2021/03/19 09:05:27;;;;;;;11.13;5.72;;;9.10;99.90;;;;;;4972987;28;20034;-51
2021/03/19 09:08:25;;;;;;;10.65;5.57;;;9.70;99.90;;;;;;4988573;28;20043;-53
2021/03/19 09:10:51;;;;;;;8.63;5.78;;;10.00;99.90;;;;;;4988700;28;20041;-55
2021/03/19 09:13:20;;;;;;;9.00;5.47;;;10.40;99.90;;;;;;4972461;28;20042;-55
2021/03/19 09:15:48;;;;;;;10.60;5.25;;;10.90;97.60;;;;;;4969782;28;20030;-55
2021/03/19 09:18:43;;;;;;;8.68;4.93;;;10.90;98.00;;;;;;5025880;28;20358;-54
2021/03/19 09:21:30;;;;;;;7.57;4.70;;;11.00;99.90;;;;;;4993187;28;20456;-51
2021/03/19 09:24:15;;;;;;;10.77;5.35;;;10.50;99.90;;;;;;5022017;28;20033;-54
2021/03/19 09:26:55;;;;;;;11.13;6.38;;;10.70;99.90;;;;;;5033882;28;20034;-52
2021/03/19 09:29:29;;;;;;;11.13;5.68;;;11.20;99.90;;;;;;5046944;28;20035;-47
2021/03/19 09:31:58;;;;;;;10.00;6.00;;;11.00;99.90;;;;;;5018300;28;20041;-53
2021/03/19 09:34:42;;;;;;;10.40;5.90;;;11.20;99.20;;;;;;5053619;28;20025;-48
2021/03/19 09:37:36;;;;;;;8.77;5.80;;;10.60;99.90;;;;;;5051725;28;20025;-49
2021/03/19 09:40:08;;;;;;;8.48;5.53;;;11.10;99.90;;;;;;4935772;29;20464;-55
2021/03/19 09:42:44;;;;;;;14.93;7.70;;;11.20;99.90;;;;;;4949809;29;20086;-56
2021/03/19 09:45:10;;;;;;;10.63;6.22;;;11.10;99.90;;;;;;4951590;29;20043;-55
2021/03/19 09:47:44;;;;;;;9.40;5.88;;;11.10;99.90;;;;;;4951594;29;20479;-52
2021/03/19 09:50:13;;;;;;;11.63;6.57;;;;;;;;;;4944321;29;20040;-55
2021/03/19 09:52:39;;;;;;;9.25;5.82;;;;;;;;;;4951527;29;20031;-51
2021/03/19 09:55:15;;;;;;;9.25;5.90;;;12.10;99.90;;;;;;4951612;29;20028;-53
2021/03/19 09:57:41;;;;;;;9.63;6.03;;;;;;;;;;4951352;29;20039;-54
2021/03/19 10:00:22;;;;;;;11.93;6.35;;;;;;;;;;4950326;29;20551;-53
2021/03/19 10:02:48;;;;;;;9.02;6.40;;;;;;;;;;4935688;28;20036;-54
2021/03/19 10:05:26;;;;;;;7.32;4.80;;;15.60;93.90;;;;;;4932264;29;20032;-55
2021/03/19 10:07:53;;;;;;;7.07;5.00;;;;;;;;;;4932279;29;20036;-52
2021/03/19 10:10:27;;;;;;;8.90;5.50;;;16.00;99.80;;;;;;4932178;29;20398;-55
2021/03/19 10:13:03;;;;;;;8.85;5.45;;;;;;;;;;4932094;29;20039;-55
2021/03/19 10:15:29;;;;;;;8.55;5.60;;;16.80;99.90;;;;;;4932337;29;20047;-54
2021/03/19 10:17:58;;;;;;;8.98;5.78;;;16.30;76.90;;;;;;5027624;28;20065;-56
2021/03/19 10:20:26;;;;;;;7.57;5.43;;;;;;;;;;4996700;28;20044;-57
2021/03/19 10:22:56;;;;;;;10.43;5.45;;;17.40;94.60;;;;;;5031762;28;20033;-48
2021/03/19 10:25:28;;;;;;;6.95;5.45;;;;;;;;;;5031790;28;20032;-51
2021/03/19 10:27:56;;;;;;;8.98;6.47;;;;;;;;;;4991940;28;20067;-50
2021/03/19 10:30:32;;;;;;;10.52;6.05;;;17.50;68.40;;;;;;4993322;28;20058;-48
2021/03/19 10:33:05;;;;;;;8.63;6.00;;;17.70;67.80;;;;;;4993405;28;20035;-55
2021/03/19 10:35:34;;;;;;;8.63;5.40;;;;;;;;;;4993752;28;20418;-51
2021/03/19 10:38:23;;;;;;;11.27;6.13;;;;;;;;;;4993344;28;20037;-54
2021/03/19 10:40:53;;;;;;;8.20;5.82;;;;;;;;;;4954460;29;20499;-54
2021/03/19 10:43:33;;;;;;;7.05;4.90;;;;;;;;;;4953827;28;20098;-56
2021/03/19 10:46:13;;;;;;;9.70;5.50;;;15.50;94.60;;;;;;4969683;28;20466;-57
2021/03/19 10:48:51;;;;;;;9.30;5.57;;;15.60;69.50;;;;;;4959983;28;20047;-48
2021/03/19 10:51:20;;;;;;;7.80;5.88;;;;;;;;;;4954383;29;20047;-55
2021/03/19 10:53:58;;;;;;;8.35;6.00;;;;;;;;;;4954342;29;20043;-54
2021/03/19 10:56:25;;;;;;;7.95;5.03;;;;;;;;;;4954151;29;20160;-52
2021/03/19 10:59:07;;;;;;;8.13;5.57;;;15.20;69.90;;;;;;4947263;28;20041;-55
2021/03/19 11:01:46;;;;;;;10.60;5.97;;;;;;;;;;4973613;28;20042;-55
2021/03/19 11:04:34;;;;;;;12.55;8.25;;;13.50;91.80;;;;;;4973506;28;20050;-50
2021/03/19 11:07:16;;;;;;;9.05;6.30;;;14.40;95.60;;;;;;4977303;28;20062;-51
2021/03/19 11:10:09;;;;;;;8.25;5.25;;;14.30;96.30;;;;;;4984795;28;20035;-58
2021/03/19 11:12:38;;;;;;;17.50;9.13;;;;;;;;;;4992578;28;20038;-50
2021/03/19 11:15:07;;;;;;;9.02;5.95;;;;;;;;;;4976368;28;20035;-50
2021/03/19 11:17:34;;;;;;;11.70;7.35;;;;;;;;;;5008694;28;20504;-58
2021/03/19 11:20:03;;;;;;;12.55;7.32;;;;;;;;;;5034307;28;20041;-54
2021/03/19 11:22:40;;;;;;;10.23;6.30;;;;;;;;;;5034151;28;20457;-49
2021/03/19 11:25:26;;;;;;;10.20;6.13;;;;;;;;;;5034192;28;20026;-54
2021/03/19 11:27:53;;;;;;;13.07;6.00;;;;;;;;;;5034046;28;20033;-54
2021/03/19 11:30:25;;;;;;;8.52;6.15;;;;;;;;;;5015804;28;20042;-57
2021/03/19 11:33:07;;;;;;;10.52;6.65;;;;;;;;;;5034127;28;20022;-56
2021/03/19 11:35:34;;;;;;;10.50;5.80;;;;;;;;;;5034108;28;20037;-52
2021/03/19 11:38:01;;;;;;;18.88;8.10;;;;;;;;;;5033650;28;20159;-53
2021/03/19 11:40:35;;;;;;;23.77;9.73;;;;;;;;;;5033972;28;20032;-55
2021/03/19 11:43:03;;;;;;;8.82;6.20;;;;;;;;;;5033917;28;20464;-52
2021/03/19 11:45:37;;;;;;;15.40;7.47;;;;;;;;;;5034049;28;20037;-53
2021/03/19 11:48:32;;;;;;;8.48;5.55;;;12.20;83.20;;;;;;5033572;28;20036;-55
2021/03/19 11:51:34;;;;;;;8.82;5.47;;;11.70;90.40;;;;;;5033751;28;20484;-55
2021/03/19 11:54:02;;;;;;;24.58;9.93;;;11.00;86.70;;;;;;4934101;29;20502;-55
2021/03/19 11:56:30;;;;;;;7.53;5.10;;;10.70;85.90;;;;;;4934058;29;20036;-56
2021/03/19 11:58:57;;;;;;;7.38;4.80;;;10.40;89.70;;;;;;4934040;29;20039;-51
2021/03/19 12:01:24;;;;;;;18.50;7.75;;;10.20;87.20;;;;;;4933838;29;20036;-50
2021/03/19 12:03:52;;;;;;;11.88;5.65;;;10.40;89.60;;;;;;4949852;29;20040;-49
2021/03/19 12:06:22;;;;;;;9.18;6.05;;;10.30;91.60;;;;;;4933969;29;20028;-50
2021/03/19 12:08:48;;;;;;;8.07;5.03;;;10.80;92.20;;;;;;4933792;29;20051;-51
2021/03/19 12:11:35;;;;;;;11.23;6.32;;;10.30;93.40;;;;;;4933769;29;20046;-55
2021/03/19 12:14:03;;;;;;;8.95;4.72;;;9.80;92.30;;;;;;4933419;29;20040;-55
2021/03/19 12:16:30;;;;;;;11.18;5.72;;;;;;;;;;4934094;29;20046;-54
2021/03/19 12:18:56;;;;;;;9.25;5.60;;;9.70;99.90;;;;;;4952757;29;20047;-55
2021/03/19 12:21:23;;;;;;;19.08;7.68;;;9.60;99.90;;;;;;4952858;29;20083;-51
2021/03/19 12:23:50;;;;;;;26.75;11.18;;;9.70;97.90;;;;;;4952864;28;20038;-50
2021/03/19 12:26:17;;;;;;;9.48;6.05;;;9.60;97.90;;;;;;4952572;29;20209;-51
2021/03/19 12:28:43;;;;;;;21.65;8.98;;;9.80;95.70;;;;;;5018018;28;20049;-55
2021/03/19 12:31:09;;;;;;;10.88;6.15;;;;;;;;;;5033003;28;20033;-47
2021/03/19 12:33:37;;;;;;;14.95;7.57;;;;;;;;;;5032982;28;20553;-49
2021/03/19 12:36:05;;;;;;;8.27;5.10;;;9.60;97.20;;;;;;5032931;28;20025;-52
2021/03/19 12:38:31;;;;;;;9.55;5.82;;;;;;;;;;4981547;28;20040;-53
2021/03/19 12:40:58;;;;;;;9.70;4.95;;;9.20;99.90;;;;;;4981396;28;20049;-56
2021/03/19 12:43:25;;;;;;;8.43;5.50;;;9.20;98.10;;;;;;5032939;28;20033;-54
2021/03/19 12:45:51;;;;;;;7.55;5.13;;;9.40;98.30;;;;;;4979401;28;20037;-53
2021/03/19 12:48:18;;;;;;;8.20;5.03;;;9.60;96.70;;;;;;4986486;28;20044;-53
2021/03/19 12:50:44;;;;;;;7.70;4.20;;;9.50;97.60;;;;;;5032029;28;20385;-52
2021/03/19 12:53:17;;;;;;;5.82;4.25;;;9.60;98.20;;;;;;5007313;28;20128;-52
2021/03/19 12:55:44;;;;;;;7.43;4.78;;;9.60;97.10;;;;;;5013321;28;20529;-54
2021/03/19 12:58:10;;;;;;;5.30;3.60;;;9.70;98.60;;;;;;5032575;28;20079;-53
2021/03/19 13:00:38;;;;;;;5.28;3.50;;;9.70;96.80;;;;;;5024655;28;20133;-52
2021/03/19 13:03:04;;;;;;;6.82;4.07;;;9.60;98.40;;;;;;5012556;28;20028;-50
2021/03/19 13:05:31;;;;;;;5.30;3.55;;;9.60;96.00;;;;;;5012881;28;20087;-47
2021/03/19 13:07:58;;;;;;;5.90;3.88;;;;;;;;;;5013629;28;20493;-48
2021/03/19 13:10:26;;;;;;;5.93;3.70;;;;;;;;;;5017565;28;20036;-52
2021/03/19 13:12:52;;;;;;;5.10;3.40;;;;;;;;;;5016715;28;20033;-50
2021/03/19 13:15:20;;;;;;;7.32;3.83;;;;;;;;;;4992394;28;20121;-52
2021/03/19 13:17:46;;;;;;;6.30;3.40;;;9.80;99.90;;;;;;5027802;28;20048;-46
2021/03/19 13:20:14;;;;;;;7.20;3.38;;;9.90;99.90;;;;;;5008704;28;20056;-50
2021/03/19 13:22:39;;;;;;;5.95;3.30;;;10.00;90.80;;;;;;5041277;28;20021;-49
2021/03/19 13:25:08;;;;;;;4.95;3.00;;;10.30;94.80;;;;;;5028559;28;20041;-51
2021/03/19 13:27:34;;;;;;;3.90;2.58;;;10.30;89.70;;;;;;4944612;28;20102;-46
2021/03/19 13:30:00;;;;;;;7.00;3.50;;;;;;;;;;4971191;28;20088;-49
2021/03/19 13:32:26;;;;;;;4.00;2.55;;;10.90;86.90;;;;;;4970632;28;20046;-46
2021/03/19 13:34:52;;;;;;;4.13;2.78;;;11.00;86.40;;;;;;4938827;28;20057;-50
2021/03/19 13:37:18;;;;;;;4.25;2.50;;;11.10;84.60;;;;;;4970909;28;20038;-54
2021/03/19 13:39:44;;;;;;;3.92;2.67;;;11.00;81.10;;;;;;4971061;28;20035;-45